Time;durP1;ratioP1;P1;durP2;ratioP2;P2;SDS_P1;SDS_P2;PMS_P1;PMS_P2;Temp;Humidity;BMP_temperature;BMP_pressure;BME280_temperature;BME280_humidity;BME280_pressure;Samples;Min_cycle;Max_cycle;Signal;HPM_P1;HPM_P2
2022/08/20 00:00:53;;;;;;;6.47;2.05;;;;;;;;;;4993111;28;20125;-86
2022/08/20 00:03:22;;;;;;;5.53;2.50;;;;;;;;;;5001024;28;20041;-86
2022/08/20 00:05:53;;;;;;;5.80;2.55;;;;;;;;;;4999121;28;20489;-86
2022/08/20 00:08:20;;;;;;;5.38;2.15;;;;;;;;;;4995282;28;20046;-85
2022/08/20 00:10:47;;;;;;;10.88;2.63;;;;;;;;;;5000236;28;20414;-86
2022/08/20 00:13:15;;;;;;;5.93;2.10;;;;;;;;;;4989629;28;20046;-86
2022/08/20 00:15:44;;;;;;;7.90;2.03;;;;;;;;;;4999140;28;20070;-86
2022/08/20 00:18:10;;;;;;;5.88;1.92;;;;;;;;;;4993350;28;20128;-85
2022/08/20 00:20:40;;;;;;;6.25;1.98;;;;;;;;;;4985886;28;20055;-85
2022/08/20 00:23:06;;;;;;;7.35;2.25;;;;;;;;;;4989768;28;20398;-86
2022/08/20 00:25:32;;;;;;;5.53;1.95;;;;;;;;;;4997371;28;20137;-86
2022/08/20 00:27:58;;;;;;;6.00;2.05;;;;;;;;;;4991725;28;20046;-87
2022/08/20 00:30:25;;;;;;;5.38;2.50;;;;;;;;;;4992375;28;20050;-85
2022/08/20 00:32:56;;;;;;;6.13;2.10;;;;;;;;;;4997528;28;20037;-86
2022/08/20 00:35:25;;;;;;;4.80;2.00;;;;;;;;;;4994854;28;20078;-86
2022/08/20 00:37:51;;;;;;;5.40;1.95;;;;;;;;;;4999228;28;20138;-86
2022/08/20 00:40:19;;;;;;;5.70;2.20;;;;;;;;;;5003492;28;20046;-86
2022/08/20 00:42:47;;;;;;;7.15;2.13;;;;;;;;;;4998157;28;20454;-87
2022/08/20 00:45:14;;;;;;;6.13;2.65;;;;;;;;;;4997807;28;20093;-87
2022/08/20 00:47:43;;;;;;;8.55;2.63;;;;;;;;;;4993424;28;20081;-87
2022/08/20 00:50:11;;;;;;;7.05;2.45;;;;;;;;;;4994319;28;20412;-86
2022/08/20 00:52:38;;;;;;;5.35;2.40;;;;;;;;;;4986196;28;20046;-86
2022/08/20 00:55:05;;;;;;;5.90;2.42;;;;;;;;;;4993735;28;20043;-87
2022/08/20 00:57:37;;;;;;;7.32;2.35;;;;;;;;;;5001479;28;20449;-87
2022/08/20 01:00:08;;;;;;;6.00;1.80;;;;;;;;;;4991517;28;20550;-87
2022/08/20 01:02:34;;;;;;;5.32;2.13;;;;;;;;;;4999240;28;20046;-86
2022/08/20 01:05:00;;;;;;;4.32;1.80;;;;;;;;;;4996776;28;20038;-88
2022/08/20 01:07:33;;;;;;;4.30;2.00;;;;;;;;;;4999380;28;20042;-85
2022/08/20 01:10:00;;;;;;;5.68;2.08;;;;;;;;;;5001286;28;20417;-87
2022/08/20 01:12:27;;;;;;;4.53;1.75;;;;;;;;;;4992798;28;20064;-85
2022/08/20 01:14:54;;;;;;;6.63;2.00;;;;;;;;;;4994591;28;20413;-86
2022/08/20 01:17:22;;;;;;;3.67;1.80;;;;;;;;;;4996099;28;20043;-86
2022/08/20 01:19:54;;;;;;;6.95;2.00;;;;;;;;;;4998190;28;20389;-86
2022/08/20 01:25:13;;;;;;;6.20;2.10;;;;;;;;;;4990936;28;20063;-86
2022/08/20 01:27:40;;;;;;;3.58;1.70;;;;;;;;;;4995845;28;20050;-86
2022/08/20 01:30:06;;;;;;;5.30;1.60;;;;;;;;;;4992010;28;20088;-86
2022/08/20 01:32:32;;;;;;;5.00;2.10;;;;;;;;;;4996307;28;20121;-86
2022/08/20 01:34:58;;;;;;;4.97;1.92;;;;;;;;;;4993553;28;20053;-86
2022/08/20 01:37:24;;;;;;;5.40;1.83;;;;;;;;;;4995389;28;20051;-85
2022/08/20 01:39:50;;;;;;;3.67;1.70;;;;;;;;;;5005827;28;20070;-86
2022/08/20 01:42:32;;;;;;;5.47;1.63;;;;;;;;;;5003904;28;20022;-89
2022/08/20 01:44:58;;;;;;;6.13;1.77;;;;;;;;;;5005567;28;20153;-86
2022/08/20 01:47:26;;;;;;;3.55;1.80;;;;;;;;;;5018798;28;20025;-86
2022/08/20 01:49:54;;;;;;;6.88;2.03;;;;;;;;;;4992530;28;20046;-86
2022/08/20 01:52:56;;;;;;;5.65;1.80;;;;;;;;;;4992774;28;20375;-86
2022/08/20 01:55:22;;;;;;;5.65;1.88;;;;;;;;;;4923755;28;20654;-85
2022/08/20 01:57:48;;;;;;;4.53;1.95;;;;;;;;;;4978019;28;20062;-86
2022/08/20 02:00:15;;;;;;;4.13;1.80;;;;;;;;;;4985722;28;20046;-86
2022/08/20 02:02:41;;;;;;;4.40;1.65;;;;;;;;;;4990439;28;20053;-86
2022/08/20 02:05:07;;;;;;;5.55;1.80;;;;;;;;;;4998294;28;20394;-87
2022/08/20 02:07:33;;;;;;;4.35;1.70;;;;;;;;;;4989067;28;20671;-86
2022/08/20 02:10:00;;;;;;;5.63;1.70;;;;;;;;;;4989407;28;20053;-87
2022/08/20 02:12:26;;;;;;;4.28;1.60;;;;;;;;;;4998205;28;20089;-85
2022/08/20 02:14:55;;;;;;;4.88;1.75;;;;;;;;;;4990968;28;20057;-86
2022/08/20 02:17:23;;;;;;;3.78;1.77;;;;;;;;;;4983107;28;20065;-85
2022/08/20 02:19:52;;;;;;;5.32;1.70;;;;;;;;;;4989107;28;20445;-87
2022/08/20 02:22:25;;;;;;;6.68;1.60;;;;;;;;;;4988948;28;20506;-86
2022/08/20 02:24:51;;;;;;;4.55;1.92;;;;;;;;;;4991447;28;20053;-86
2022/08/20 02:27:17;;;;;;;5.15;2.00;;;;;;;;;;4999066;28;20070;-87
2022/08/20 02:29:44;;;;;;;4.60;1.80;;;;;;;;;;4998868;28;20108;-87
2022/08/20 02:32:10;;;;;;;1.52;1.42;;;;;;;;;;4991643;28;20046;-86
2022/08/20 02:34:36;;;;;;;4.13;1.67;;;;;;;;;;4999599;28;20057;-87
2022/08/20 02:37:04;;;;;;;5.00;1.90;;;;;;;;;;5000220;28;20128;-86
2022/08/20 02:39:30;;;;;;;4.85;1.60;;;;;;;;;;4991103;28;20043;-86
2022/08/20 02:41:56;;;;;;;3.08;1.73;;;;;;;;;;4986204;28;20496;-87
2022/08/20 02:44:22;;;;;;;5.15;1.90;;;;;;;;;;4992676;28;20058;-86
2022/08/20 02:46:48;;;;;;;4.15;1.60;;;;;;;;;;4982373;28;20065;-88
2022/08/20 02:49:16;;;;;;;4.75;1.88;;;;;;;;;;4988594;28;20136;-87
2022/08/20 02:51:42;;;;;;;3.90;1.83;;;;;;;;;;4992190;28;20057;-87
2022/08/20 02:54:08;;;;;;;4.80;1.73;;;;;;;;;;4985224;28;20221;-88
2022/08/20 02:56:34;;;;;;;3.92;1.58;;;;;;;;;;4988352;28;20050;-87
2022/08/20 02:59:01;;;;;;;4.80;1.52;;;;;;;;;;4994295;28;20042;-86
2022/08/20 03:01:27;;;;;;;3.72;1.80;;;;;;;;;;4989129;28;20121;-88
2022/08/20 03:03:56;;;;;;;4.18;1.63;;;;;;;;;;4995697;28;20389;-87
2022/08/20 03:06:22;;;;;;;4.85;1.90;;;;;;;;;;4989768;28;20126;-86
2022/08/20 03:08:48;;;;;;;5.43;1.88;;;;;;;;;;4996873;28;20721;-87
2022/08/20 03:11:15;;;;;;;5.38;2.00;;;;;;;;;;4995152;28;20046;-86
2022/08/20 03:13:41;;;;;;;4.45;1.80;;;;;;;;;;5003436;28;20038;-86
2022/08/20 03:16:07;;;;;;;4.28;1.60;;;;;;;;;;4997261;28;20058;-86
2022/08/20 03:18:38;;;;;;;2.72;1.50;;;;;;;;;;5003978;28;20121;-86
2022/08/20 03:21:05;;;;;;;7.38;1.75;;;;;;;;;;5002342;28;20038;-87
2022/08/20 03:23:32;;;;;;;5.78;2.00;;;;;;;;;;4989579;28;20051;-87
2022/08/20 03:26:02;;;;;;;5.75;1.85;;;;;;;;;;4976350;28;20557;-86
2022/08/20 03:28:28;;;;;;;4.35;1.60;;;;;;;;;;4993963;28;20046;-86
2022/08/20 03:30:55;;;;;;;3.85;2.25;;;;;;;;;;4983592;28;21468;-86
2022/08/20 03:33:22;;;;;;;5.63;2.38;;;;;;;;;;4993984;28;20046;-86
2022/08/20 03:35:48;;;;;;;4.00;1.90;;;;;;;;;;4993763;28;20042;-87
2022/08/20 03:38:16;;;;;;;4.70;1.80;;;;;;;;;;4989762;28;20049;-86
2022/08/20 03:40:42;;;;;;;5.03;2.28;;;;;;;;;;4980743;28;20042;-86
2022/08/20 03:43:08;;;;;;;5.80;2.45;;;;;;;;;;4998789;28;20041;-86
2022/08/20 03:45:36;;;;;;;3.38;1.60;;;;;;;;;;4992256;28;20043;-88
2022/08/20 03:48:03;;;;;;;3.70;1.92;;;;;;;;;;4992717;28;20050;-87
2022/08/20 03:50:31;;;;;;;5.18;1.90;;;;;;;;;;4991169;28;20078;-87
2022/08/20 03:52:58;;;;;;;4.82;1.77;;;;;;;;;;4987104;28;20049;-87
2022/08/20 03:55:25;;;;;;;3.95;1.80;;;;;;;;;;4997122;28;20057;-87
2022/08/20 03:57:52;;;;;;;4.63;2.10;;;;;;;;;;4989280;28;20134;-87
2022/08/20 04:00:20;;;;;;;4.60;2.00;;;;;;;;;;4989759;28;20328;-86
2022/08/20 04:02:49;;;;;;;2.83;1.60;;;;;;;;;;4990139;28;20108;-87
2022/08/20 04:05:16;;;;;;;4.13;1.90;;;;;;;;;;4985602;28;20099;-87
2022/08/20 04:07:43;;;;;;;7.70;2.10;;;;;;;;;;4999401;28;20045;-87
2022/08/20 04:10:10;;;;;;;3.25;1.55;;;;;;;;;;4995437;28;20129;-86
2022/08/20 04:12:39;;;;;;;5.10;1.80;;;;;;;;;;4995000;28;20436;-86
2022/08/20 04:15:06;;;;;;;4.20;1.85;;;;;;;;;;4996973;28;20054;-86
2022/08/20 04:17:32;;;;;;;4.82;1.92;;;;;;;;;;4987059;28;20087;-87
2022/08/20 04:19:58;;;;;;;4.20;1.85;;;;;;;;;;5005571;28;20038;-88
2022/08/20 04:22:24;;;;;;;3.53;1.60;;;;;;;;;;4989373;28;21669;-86
2022/08/20 04:24:50;;;;;;;5.40;1.90;;;;;;;;;;5006915;28;20061;-88
2022/08/20 04:27:16;;;;;;;3.47;2.00;;;;;;;;;;4998521;28;20050;-88
2022/08/20 04:29:43;;;;;;;4.75;2.03;;;;;;;;;;5000725;28;20116;-88
2022/08/20 04:32:09;;;;;;;3.92;1.92;;;;;;;;;;4985464;28;20050;-88
2022/08/20 04:34:35;;;;;;;7.28;2.22;;;;;;;;;;5001264;28;20126;-89
2022/08/20 04:37:01;;;;;;;5.80;1.88;;;;;;;;;;4997611;28;20038;-87
2022/08/20 04:39:27;;;;;;;4.55;2.05;;;;;;;;;;4988238;28;20133;-87
2022/08/20 04:41:53;;;;;;;5.22;1.95;;;;;;;;;;4996483;28;20050;-87
2022/08/20 04:44:20;;;;;;;3.85;1.90;;;;;;;;;;4988048;28;20056;-86
2022/08/20 04:46:46;;;;;;;4.57;2.00;;;;;;;;;;4983549;28;20057;-88
2022/08/20 04:49:12;;;;;;;5.03;1.80;;;;;;;;;;4996625;28;20050;-89
2022/08/20 04:51:38;;;;;;;5.25;2.03;;;;;;;;;;4988388;28;20062;-88
2022/08/20 04:54:04;;;;;;;4.18;2.00;;;;;;;;;;5006059;28;20072;-89
2022/08/20 04:56:33;;;;;;;5.10;2.10;;;;;;;;;;4991463;28;20057;-88
2022/08/20 04:59:00;;;;;;;6.10;2.15;;;;;;;;;;5006287;28;20050;-89
2022/08/20 05:01:27;;;;;;;4.97;2.20;;;;;;;;;;4998117;28;20052;-89
2022/08/20 05:03:53;;;;;;;4.63;2.20;;;;;;;;;;4993832;28;20553;-89
2022/08/20 05:06:20;;;;;;;4.05;1.98;;;;;;;;;;4998203;28;20046;-88
2022/08/20 05:08:46;;;;;;;7.40;2.22;;;;;;;;;;5003118;28;20042;-88
2022/08/20 05:11:13;;;;;;;4.93;2.20;;;;;;;;;;4997547;28;20050;-88
2022/08/20 05:13:39;;;;;;;5.93;2.10;;;;;;;;;;4995410;28;20189;-88
2022/08/20 05:16:05;;;;;;;9.15;2.10;;;;;;;;;;4991484;28;20049;-89
2022/08/20 05:18:32;;;;;;;4.53;2.08;;;;;;;;;;4994608;28;20058;-90
2022/08/20 05:21:04;;;;;;;3.92;2.08;;;;;;;;;;5021232;28;20026;-89
2022/08/20 05:23:31;;;;;;;4.18;1.90;;;;;;;;;;5017369;28;20077;-88
2022/08/20 05:25:57;;;;;;;5.78;2.42;;;;;;;;;;5013201;28;20533;-89
2022/08/20 05:28:25;;;;;;;4.97;2.08;;;;;;;;;;4996499;28;20050;-88
2022/08/20 05:30:51;;;;;;;5.82;2.30;;;;;;;;;;4999412;28;20049;-89
2022/08/20 05:33:18;;;;;;;4.22;2.20;;;;;;;;;;4984264;28;20039;-89
2022/08/20 05:35:46;;;;;;;4.40;2.15;;;;;;;;;;4997919;28;20138;-88
2022/08/20 05:38:13;;;;;;;4.38;2.40;;;;;;;;;;4990831;28;20133;-88
2022/08/20 05:40:40;;;;;;;4.30;1.90;;;;;;;;;;5005098;28;20041;-89
2022/08/20 05:43:07;;;;;;;4.65;2.33;;;;;;;;;;4997003;28;20052;-89
2022/08/20 05:45:36;;;;;;;4.90;2.40;;;;;;;;;;5003241;28;20058;-89
2022/08/20 05:48:10;;;;;;;4.80;2.65;;;;;;;;;;4999308;28;20049;-88
2022/08/20 05:50:37;;;;;;;6.18;2.50;;;;;;;;;;4993905;28;20672;-88
2022/08/20 05:53:03;;;;;;;6.20;2.33;;;;;;;;;;4998268;28;20509;-89
2022/08/20 05:55:29;;;;;;;3.45;2.13;;;;;;;;;;4990465;28;20054;-89
2022/08/20 05:57:56;;;;;;;5.72;1.98;;;;;;;;;;5004460;28;20041;-88
2022/08/20 06:00:22;;;;;;;6.53;2.22;;;;;;;;;;4999359;28;20053;-88
2022/08/20 06:05:33;;;;;;;6.63;2.25;;;;;;;;;;4997671;28;20046;-89
2022/08/20 06:07:59;;;;;;;4.75;2.40;;;;;;;;;;4998154;28;20410;-89
2022/08/20 06:10:25;;;;;;;3.42;1.98;;;;;;;;;;5001486;28;20745;-89
2022/08/20 06:12:52;;;;;;;7.32;2.22;;;;;;;;;;5005981;28;20046;-89
2022/08/20 06:15:18;;;;;;;6.90;2.53;;;;;;;;;;5000516;28;20053;-88
2022/08/20 06:17:44;;;;;;;5.07;2.20;;;;;;;;;;5002413;28;20038;-89
2022/08/20 06:20:11;;;;;;;3.88;1.90;;;;;;;;;;4995582;28;20115;-89
2022/08/20 06:22:37;;;;;;;5.10;2.13;;;;;;;;;;4989264;28;20046;-89
2022/08/20 06:25:04;;;;;;;6.70;2.72;;;;;;;;;;4995012;28;20061;-89
2022/08/20 06:27:30;;;;;;;8.18;2.15;;;;;;;;;;4990428;28;20042;-90
2022/08/20 06:29:56;;;;;;;4.82;1.73;;;;;;;;;;4998236;28;20042;-89
2022/08/20 06:32:23;;;;;;;6.38;2.03;;;;;;;;;;4997492;28;20110;-88
2022/08/20 06:34:50;;;;;;;4.50;2.10;;;;;;;;;;4998067;28;20045;-89
2022/08/20 06:37:17;;;;;;;5.20;2.00;;;;;;;;;;4995195;28;20132;-88
2022/08/20 06:39:43;;;;;;;7.88;2.47;;;;;;;;;;4986230;28;20034;-88
2022/08/20 06:42:09;;;;;;;4.05;2.10;;;;;;;;;;4990162;28;20478;-88
2022/08/20 06:44:36;;;;;;;4.53;2.15;;;;;;;;;;5000099;28;20051;-88
2022/08/20 06:47:03;;;;;;;6.90;2.50;;;;;;;;;;4988706;28;20046;-89
2022/08/20 06:49:29;;;;;;;5.60;2.30;;;;;;;;;;4989328;28;20092;-87
2022/08/20 06:51:56;;;;;;;5.57;2.25;;;;;;;;;;5004719;28;20045;-90
2022/08/20 06:54:23;;;;;;;6.40;2.15;;;;;;;;;;4988830;28;20101;-89
2022/08/20 06:56:52;;;;;;;7.20;2.38;;;;;;;;;;4998300;28;20060;-89
2022/08/20 06:59:18;;;;;;;6.43;2.17;;;;;;;;;;4991597;28;20052;-88
2022/08/20 07:01:45;;;;;;;5.78;2.17;;;;;;;;;;4982067;28;20034;-90
2022/08/20 07:04:11;;;;;;;5.03;2.28;;;;;;;;;;4997440;28;20053;-88
2022/08/20 07:06:37;;;;;;;5.57;2.22;;;;;;;;;;4994902;28;20487;-90
2022/08/20 07:09:03;;;;;;;5.40;2.00;;;;;;;;;;4987071;28;20064;-90
2022/08/20 07:11:29;;;;;;;6.95;2.30;;;;;;;;;;5003921;28;20054;-88
2022/08/20 07:13:58;;;;;;;6.60;2.20;;;;;;;;;;5007636;28;20092;-90
2022/08/20 07:16:24;;;;;;;6.28;2.20;;;;;;;;;;5000292;28;20046;-87
2022/08/20 07:18:50;;;;;;;7.20;2.00;;;;;;;;;;5006268;28;20489;-88
2022/08/20 07:21:16;;;;;;;6.22;2.08;;;;;;;;;;4998711;28;20069;-87
2022/08/20 07:23:42;;;;;;;4.88;2.15;;;;;;;;;;4983289;28;20163;-87
2022/08/20 07:26:08;;;;;;;8.32;2.42;;;;;;;;;;4985718;28;20134;-89
2022/08/20 07:28:34;;;;;;;6.68;2.30;;;;;;;;;;4981785;28;20047;-88
2022/08/20 07:33:45;;;;;;;7.72;2.65;;;;;;;;;;4990786;28;20046;-87
2022/08/20 07:36:12;;;;;;;7.68;2.38;;;;;;;;;;4986305;28;20070;-89
2022/08/20 07:38:39;;;;;;;6.88;2.45;;;;;;;;;;4991832;28;20064;-89
2022/08/20 07:41:12;;;;;;;5.65;2.10;;;;;;;;;;4989179;28;20128;-90
2022/08/20 07:43:38;;;;;;;5.80;2.25;;;;;;;;;;4984617;28;20447;-88
2022/08/20 07:46:06;;;;;;;8.57;2.72;;;;;;;;;;4985287;28;20049;-88
2022/08/20 07:48:32;;;;;;;6.35;2.47;;;;;;;;;;4984276;28;20050;-91
2022/08/20 07:51:00;;;;;;;8.25;2.50;;;;;;;;;;4998354;28;20366;-88
2022/08/20 07:53:26;;;;;;;10.65;2.42;;;;;;;;;;4999671;28;20049;-89
2022/08/20 07:55:53;;;;;;;8.15;2.50;;;;;;;;;;4998809;28;20046;-91
2022/08/20 07:58:21;;;;;;;6.45;2.10;;;;;;;;;;4996100;28;20097;-87
2022/08/20 08:00:47;;;;;;;5.80;2.10;;;;;;;;;;4993599;28;20061;-90
2022/08/20 08:03:13;;;;;;;6.80;2.13;;;;;;;;;;4989622;28;20123;-89
2022/08/20 08:05:42;;;;;;;5.22;2.20;;;;;;;;;;4996379;28;20133;-87
2022/08/20 08:08:09;;;;;;;4.93;2.10;;;;;;;;;;4994369;28;20038;-86
2022/08/20 08:10:36;;;;;;;7.97;2.47;;;;;;;;;;4999279;28;20566;-88
2022/08/20 08:13:03;;;;;;;6.95;2.20;;;;;;;;;;4985992;28;20050;-88
2022/08/20 08:15:32;;;;;;;6.13;2.45;;;;;;;;;;4984782;28;20073;-87
2022/08/20 08:18:00;;;;;;;4.88;2.10;;;;;;;;;;5001439;28;20062;-88
2022/08/20 08:20:26;;;;;;;6.18;2.35;;;;;;;;;;4990183;28;20050;-90
2022/08/20 08:22:52;;;;;;;6.13;2.30;;;;;;;;;;4991290;28;20042;-88
2022/08/20 08:25:19;;;;;;;6.45;2.55;;;;;;;;;;4994051;28;20050;-88
2022/08/20 08:27:47;;;;;;;3.83;2.05;;;;;;;;;;4998516;28;20124;-88
2022/08/20 08:30:13;;;;;;;8.88;2.38;;;;;;;;;;4984193;28;20065;-88
2022/08/20 08:33:26;;;;;;;6.57;2.25;;;;;;;;;;4985812;28;20034;-89
2022/08/20 08:35:25;;;;;;;6.25;2.35;;;;;;;;;;4991740;28;21132;-88
2022/08/20 08:37:52;;;;;;;7.55;2.42;;;;;;;;;;4999884;28;20057;-88
2022/08/20 08:40:19;;;;;;;7.25;2.50;;;;;;;;;;4988594;28;20050;-87
2022/08/20 08:42:54;;;;;;;5.57;2.17;;;;;;;;;;4990929;28;20055;-87
2022/08/20 08:45:21;;;;;;;5.30;2.50;;;;;;;;;;4982325;28;20114;-88
2022/08/20 08:47:47;;;;;;;6.25;2.05;;;;;;;;;;4994884;28;20386;-89
2022/08/20 08:50:27;;;;;;;5.53;2.08;;;;;;;;;;4982631;28;20066;-89
2022/08/20 08:52:58;;;;;;;6.43;2.50;;;;;;;;;;4990397;28;20085;-88
2022/08/20 08:55:25;;;;;;;9.63;2.40;;;;;;;;;;4991374;28;20050;-91
2022/08/20 08:57:53;;;;;;;6.68;2.55;;;;;;;;;;5016439;28;20027;-88
2022/08/20 09:00:20;;;;;;;4.57;2.45;;;;;;;;;;5000577;28;20092;-87
2022/08/20 09:02:53;;;;;;;6.43;2.30;;;;;;;;;;4994225;28;20034;-89
2022/08/20 09:05:20;;;;;;;6.05;2.30;;;;;;;;;;4985690;28;20069;-87
2022/08/20 09:07:48;;;;;;;5.57;2.20;;;;;;;;;;4999858;28;20050;-85
2022/08/20 09:10:15;;;;;;;3.33;1.80;;;;;;;;;;4984216;28;20043;-86
2022/08/20 09:12:43;;;;;;;5.50;2.25;;;;;;;;;;4996678;28;20038;-89
2022/08/20 09:15:09;;;;;;;4.03;2.00;;;;;;;;;;4998582;28;20450;-90
2022/08/20 09:17:35;;;;;;;2.83;1.90;;;;;;;;;;4991252;28;20050;-89
2022/08/20 09:20:01;;;;;;;5.00;2.28;;;;;;;;;;4983407;28;20051;-90
2022/08/20 09:22:27;;;;;;;5.25;2.40;;;;;;;;;;4979376;28;20043;-89
2022/08/20 09:24:55;;;;;;;6.00;2.38;;;;;;;;;;4995324;28;20050;-89
2022/08/20 09:27:21;;;;;;;4.10;2.00;;;;;;;;;;4978251;28;21746;-87
2022/08/20 09:29:47;;;;;;;7.68;2.10;;;;;;;;;;4993247;28;20050;-87
2022/08/20 09:32:15;;;;;;;5.63;2.45;;;;;;;;;;4995213;28;20042;-89
2022/08/20 09:34:43;;;;;;;6.47;2.25;;;;;;;;;;4981518;28;20052;-86
2022/08/20 09:37:09;;;;;;;5.15;1.90;;;;;;;;;;4986289;28;20054;-89
2022/08/20 09:39:35;;;;;;;6.88;2.10;;;;;;;;;;4988847;28;20049;-89
2022/08/20 09:42:07;;;;;;;7.47;2.20;;;;;;;;;;4992943;28;20081;-89
2022/08/20 09:44:33;;;;;;;6.70;2.25;;;;;;;;;;4991187;28;20058;-86
2022/08/20 09:46:59;;;;;;;7.00;2.60;;;;;;;;;;4973357;28;20078;-88
2022/08/20 09:49:25;;;;;;;4.47;2.10;;;;;;;;;;4985752;28;20136;-84
2022/08/20 09:51:51;;;;;;;5.35;2.10;;;;;;;;;;4998671;28;20073;-86
2022/08/20 09:54:18;;;;;;;4.65;2.13;;;;;;;;;;4980985;28;20509;-85
2022/08/20 09:56:44;;;;;;;5.70;2.60;;;;;;;;;;4979289;28;20442;-85
2022/08/20 09:59:10;;;;;;;5.05;1.95;;;;;;;;;;4976833;28;20043;-85
2022/08/20 10:01:36;;;;;;;7.15;2.70;;;;;;;;;;4992583;28;20050;-85
2022/08/20 10:04:02;;;;;;;4.20;2.50;;;;;;;;;;4991916;28;20042;-84
2022/08/20 10:06:28;;;;;;;6.43;2.20;;;;;;;;;;4978708;28;20482;-85
2022/08/20 10:08:54;;;;;;;5.03;2.08;;;;;;;;;;4991575;28;20038;-86
2022/08/20 10:11:20;;;;;;;4.30;2.15;;;;;;;;;;4982774;28;20046;-85
2022/08/20 10:13:46;;;;;;;6.03;2.15;;;;;;;;;;4996641;28;20477;-85
2022/08/20 10:16:12;;;;;;;5.97;2.20;;;;;;;;;;4997434;28;20042;-85
2022/08/20 10:18:38;;;;;;;5.43;2.10;;;;;;;;;;5003340;28;20034;-85
2022/08/20 10:21:09;;;;;;;5.95;2.55;;;;;;;;;;4972443;28;20047;-85
2022/08/20 10:23:35;;;;;;;4.63;1.88;;;;;;;;;;4980784;28;20043;-85
2022/08/20 10:26:01;;;;;;;6.18;2.20;;;;;;;;;;4978886;28;20146;-85
2022/08/20 10:28:27;;;;;;;7.53;2.45;;;;;;;;;;4978149;28;20133;-85
2022/08/20 10:30:53;;;;;;;4.97;2.35;;;;;;;;;;4982082;28;20816;-83
2022/08/20 10:33:19;;;;;;;4.50;2.40;;;;;;;;;;4988055;28;20046;-86
2022/08/20 10:35:45;;;;;;;4.60;2.08;;;;;;;;;;4987886;28;20038;-86
2022/08/20 10:38:11;;;;;;;4.75;2.17;;;;;;;;;;4985109;28;20465;-85
2022/08/20 10:40:37;;;;;;;6.00;2.50;;;;;;;;;;4978265;28;20051;-86
2022/08/20 10:43:03;;;;;;;4.65;2.10;;;;;;;;;;4983429;28;20046;-88
2022/08/20 10:45:29;;;;;;;5.10;2.42;;;;;;;;;;4993916;28;20113;-83
2022/08/20 10:47:58;;;;;;;5.05;2.50;;;;;;;;;;4997292;28;20046;-87
2022/08/20 10:50:24;;;;;;;5.32;2.20;;;;;;;;;;4983367;28;20081;-85
2022/08/20 10:52:50;;;;;;;4.85;2.15;;;;;;;;;;4971867;28;20132;-82
2022/08/20 10:55:16;;;;;;;6.15;2.00;;;;;;;;;;4990266;28;20046;-85
2022/08/20 10:57:42;;;;;;;6.45;2.22;;;;;;;;;;4984734;28;20050;-85
2022/08/20 11:00:09;;;;;;;4.00;2.15;;;;;;;;;;4979031;28;20057;-85
2022/08/20 11:02:35;;;;;;;7.68;2.47;;;;;;;;;;4971235;28;20047;-85
2022/08/20 11:05:01;;;;;;;6.57;2.30;;;;;;;;;;4987256;28;20046;-82
2022/08/20 11:07:35;;;;;;;8.27;2.30;;;;;;;;;;4972417;28;20054;-84
2022/08/20 11:10:01;;;;;;;7.45;2.25;;;;;;;;;;4994313;28;20137;-85
2022/08/20 11:12:27;;;;;;;4.03;2.20;;;;;;;;;;4978505;28;20070;-85
2022/08/20 11:14:53;;;;;;;6.15;2.35;;;;;;;;;;5000836;28;20487;-82
2022/08/20 11:17:21;;;;;;;6.63;2.42;;;;;;;;;;4976466;28;20384;-89
2022/08/20 11:19:47;;;;;;;7.05;2.28;;;;;;;;;;4984784;28;20078;-85
2022/08/20 11:22:13;;;;;;;4.07;2.03;;;;;;;;;;4984168;28;20395;-84
2022/08/20 11:24:39;;;;;;;8.73;2.40;;;;;;;;;;4989990;28;20053;-83
2022/08/20 11:27:09;;;;;;;4.50;1.83;;;;;;;;;;4988644;28;20054;-83
2022/08/20 11:29:38;;;;;;;6.07;2.13;;;;;;;;;;4999362;28;20042;-85
2022/08/20 11:32:04;;;;;;;6.63;2.25;;;;;;;;;;5009288;28;20054;-82
2022/08/20 11:34:31;;;;;;;7.10;2.00;;;;;;;;;;4982698;28;20505;-83
2022/08/20 11:36:58;;;;;;;5.03;2.20;;;;;;;;;;4977625;28;20058;-84
2022/08/20 11:39:24;;;;;;;4.57;1.90;;;;;;;;;;5007047;28;20054;-82
2022/08/20 11:41:50;;;;;;;6.18;2.47;;;;;;;;;;4992992;28;20134;-81
2022/08/20 11:44:16;;;;;;;6.80;2.30;;;;;;;;;;4982356;28;20059;-82
2022/08/20 11:46:42;;;;;;;7.60;2.33;;;;;;;;;;4994638;28;20528;-83
2022/08/20 11:49:08;;;;;;;7.78;2.33;;;;;;;;;;4979961;28;20054;-84
2022/08/20 11:51:36;;;;;;;5.32;2.08;;;;;;;;;;4986821;28;20052;-83
2022/08/20 11:54:02;;;;;;;5.97;2.30;;;;;;;;;;4993388;28;20051;-83
2022/08/20 11:56:28;;;;;;;7.82;2.53;;;;;;;;;;4989011;28;20150;-83
2022/08/20 11:58:54;;;;;;;7.20;2.25;;;;;;;;;;4975221;28;20483;-82
2022/08/20 12:01:20;;;;;;;7.40;2.30;;;;;;;;;;4983734;28;20114;-83
2022/08/20 12:03:46;;;;;;;7.38;2.10;;;;;;;;;;4975120;28;20064;-83
2022/08/20 12:06:12;;;;;;;6.95;2.30;;;;;;;;;;4981792;28;20043;-84
2022/08/20 12:08:38;;;;;;;6.85;2.17;;;;;;;;;;4983587;28;20050;-83
2022/08/20 12:11:04;;;;;;;4.32;1.85;;;;;;;;;;4988816;28;20566;-83
2022/08/20 12:13:32;;;;;;;5.88;2.03;;;;;;;;;;4977340;28;20046;-84
2022/08/20 12:15:58;;;;;;;5.00;2.10;;;;;;;;;;4992597;28;20050;-83
2022/08/20 12:18:24;;;;;;;5.35;2.00;;;;;;;;;;4977664;28;20050;-83
2022/08/20 12:20:50;;;;;;;4.78;2.00;;;;;;;;;;4990662;28;20039;-82
2022/08/20 12:23:16;;;;;;;6.03;2.20;;;;;;;;;;4982265;28;20065;-84
2022/08/20 12:25:43;;;;;;;4.88;2.40;;;;;;;;;;4983360;28;20058;-85
2022/08/20 12:28:11;;;;;;;6.68;2.40;;;;;;;;;;4992663;28;20049;-87
2022/08/20 12:30:37;;;;;;;9.52;2.42;;;;;;;;;;4982774;28;20145;-86
2022/08/20 12:33:03;;;;;;;5.18;1.90;;;;;;;;;;4987191;28;20093;-86
2022/08/20 12:35:30;;;;;;;8.27;2.50;;;;;;;;;;4998097;28;20104;-86
2022/08/20 12:37:57;;;;;;;6.45;2.30;;;;;;;;;;4984387;28;20406;-84
2022/08/20 12:40:27;;;;;;;4.28;2.10;;;;;;;;;;4989841;28;20059;-85
2022/08/20 12:42:53;;;;;;;5.65;2.08;;;;;;;;;;4991505;28;20042;-83
2022/08/20 12:45:19;;;;;;;5.68;2.15;;;;;;;;;;4999485;28;20049;-84
2022/08/20 12:47:46;;;;;;;5.65;2.10;;;;;;;;;;5002841;28;20042;-84
2022/08/20 12:50:14;;;;;;;6.43;1.90;;;;;;;;;;4984977;28;20050;-84
2022/08/20 12:52:41;;;;;;;5.18;2.00;;;;;;;;;;4994550;28;20065;-84
2022/08/20 12:55:08;;;;;;;6.55;2.25;;;;;;;;;;4987044;28;20624;-83
2022/08/20 12:57:40;;;;;;;5.45;2.15;;;;;;;;;;4979480;28;20145;-84
2022/08/20 13:00:08;;;;;;;5.22;2.20;;;;;;;;;;4990220;28;20136;-83
2022/08/20 13:02:34;;;;;;;5.82;2.50;;;;;;;;;;4985491;28;20134;-83
2022/08/20 13:05:00;;;;;;;5.45;2.40;;;;;;;;;;4984117;28;20134;-85
2022/08/20 13:07:26;;;;;;;5.15;2.35;;;;;;;;;;5004927;28;20066;-83
2022/08/20 13:09:52;;;;;;;9.18;3.17;;;;;;;;;;4983171;28;20447;-87
2022/08/20 13:12:19;;;;;;;6.07;2.30;;;;;;;;;;4993428;28;20128;-92
2022/08/20 13:14:45;;;;;;;5.18;2.40;;;;;;;;;;5001519;28;20042;-87
2022/08/20 13:17:11;;;;;;;4.43;2.10;;;;;;;;;;4997406;28;20048;-80
2022/08/20 13:19:38;;;;;;;5.22;2.42;;;;;;;;;;4985092;28;20062;-82
2022/08/20 13:22:04;;;;;;;5.55;2.25;;;;;;;;;;4974390;28;20038;-83
2022/08/20 13:24:30;;;;;;;5.40;2.20;;;;;;;;;;4989678;28;20072;-83
2022/08/20 13:27:04;;;;;;;7.22;2.10;;;;;;;;;;4982355;28;20048;-82
2022/08/20 13:29:30;;;;;;;6.50;2.65;;;;;;;;;;4984797;28;20557;-82
2022/08/20 13:31:56;;;;;;;5.38;2.28;;;;;;;;;;4979044;28;20042;-82
2022/08/20 13:34:22;;;;;;;6.60;2.33;;;;;;;;;;4996087;28;20046;-84
2022/08/20 13:36:48;;;;;;;4.18;2.08;;;;;;;;;;4983992;28;20041;-84
2022/08/20 13:39:14;;;;;;;7.15;2.10;;;;;;;;;;4972175;28;20502;-84
2022/08/20 13:41:40;;;;;;;5.80;2.33;;;;;;;;;;5001950;28;20061;-87
2022/08/20 13:44:06;;;;;;;2.90;1.80;;;;;;;;;;4995659;28;20147;-85
2022/08/20 13:46:32;;;;;;;4.60;1.95;;;;;;;;;;4973741;28;20058;-86
2022/08/20 13:48:58;;;;;;;6.45;2.17;;;;;;;;;;4989662;28;20042;-85
2022/08/20 13:51:24;;;;;;;5.47;1.88;;;;;;;;;;4978843;28;20057;-85
2022/08/20 13:53:50;;;;;;;4.68;2.00;;;;;;;;;;4980957;28;20053;-81
2022/08/20 13:56:16;;;;;;;7.75;2.92;;;;;;;;;;4976147;28;20101;-83
2022/08/20 13:58:42;;;;;;;4.10;1.90;;;;;;;;;;4988231;28;20117;-81
2022/08/20 14:01:08;;;;;;;7.50;2.25;;;;;;;;;;4991303;28;20129;-82
2022/08/20 14:03:34;;;;;;;5.18;2.10;;;;;;;;;;4987479;28;20109;-81
2022/08/20 14:06:01;;;;;;;4.10;1.92;;;;;;;;;;4988312;28;20051;-82
2022/08/20 14:08:27;;;;;;;5.03;2.22;;;;;;;;;;4980772;28;20046;-85
2022/08/20 14:10:54;;;;;;;6.25;2.15;;;;;;;;;;4996340;28;20042;-83
2022/08/20 14:13:21;;;;;;;6.65;2.08;;;;;;;;;;5005566;28;20088;-82
2022/08/20 14:15:47;;;;;;;5.78;2.40;;;;;;;;;;5002381;28;20068;-82
2022/08/20 14:18:14;;;;;;;6.10;2.45;;;;;;;;;;4988262;28;20046;-81
2022/08/20 14:20:41;;;;;;;4.65;2.40;;;;;;;;;;4982699;28;20126;-82
2022/08/20 14:23:07;;;;;;;6.90;2.13;;;;;;;;;;4976187;28;20078;-80
2022/08/20 14:25:33;;;;;;;4.20;2.25;;;;;;;;;;4994680;28;20073;-81
2022/08/20 14:28:08;;;;;;;5.93;2.55;;;;;;;;;;4981785;28;20057;-82
2022/08/20 14:30:34;;;;;;;4.93;2.30;;;;;;;;;;4994897;28;20056;-83
2022/08/20 14:33:00;;;;;;;4.75;2.20;;;;;;;;;;5010973;28;20172;-83
2022/08/20 14:35:26;;;;;;;5.00;1.92;;;;;;;;;;5000449;28;20133;-85
2022/08/20 14:37:55;;;;;;;2.92;1.85;;;;;;;;;;4989116;28;20508;-84
2022/08/20 14:40:21;;;;;;;5.13;2.00;;;;;;;;;;4984835;28;20050;-91
2022/08/20 14:42:48;;;;;;;4.82;1.80;;;;;;;;;;4999722;28;20501;-90
2022/08/20 14:45:15;;;;;;;6.35;2.00;;;;;;;;;;4989411;28;20078;-83
2022/08/20 14:47:42;;;;;;;3.42;1.85;;;;;;;;;;4992673;28;20046;-82
2022/08/20 14:50:10;;;;;;;4.25;2.00;;;;;;;;;;4977616;28;20054;-83